sensor_id;sensor_type;location;lat;lon;timestamp;pressure;altitude;pressure_sealevel;temperature;humidity
42511;BME280;28141;51.120;17.114;2022-10-16T00:02:51;101570.56;;;29.61;33.72
42511;BME280;28141;51.120;17.114;2022-10-16T00:05:58;101575.30;;;29.60;34.15
42511;BME280;28141;51.120;17.114;2022-10-16T00:09:03;101575.30;;;29.60;34.00
42511;BME280;28141;51.120;17.114;2022-10-16T00:12:33;101581.38;;;29.57;33.84
42511;BME280;28141;51.120;17.114;2022-10-16T00:15:37;101571.30;;;29.56;33.76
42511;BME280;28141;51.120;17.114;2022-10-16T00:18:42;101572.16;;;29.57;34.06
42511;BME280;28141;51.120;17.114;2022-10-16T00:21:46;101585.02;;;29.58;34.25
42511;BME280;28141;51.120;17.114;2022-10-16T00:24:49;101573.84;;;29.58;33.59
42511;BME280;28141;51.120;17.114;2022-10-16T00:27:53;101574.09;;;29.56;33.69
42511;BME280;28141;51.120;17.114;2022-10-16T00:30:57;101569.36;;;29.57;34.16
42511;BME280;28141;51.120;17.114;2022-10-16T00:34:01;101574.09;;;29.56;33.44
42511;BME280;28141;51.120;17.114;2022-10-16T00:37:04;101571.30;;;29.56;34.04
42511;BME280;28141;51.120;17.114;2022-10-16T00:40:09;101571.80;;;29.53;34.10
42511;BME280;28141;51.120;17.114;2022-10-16T00:43:46;101581.30;;;29.52;33.96
42511;BME280;28141;51.120;17.114;2022-10-16T00:46:51;101580.70;;;29.50;33.92
42511;BME280;28141;51.120;17.114;2022-10-16T00:53:10;101574.41;;;29.43;34.33
42511;BME280;28141;51.120;17.114;2022-10-16T00:56:15;101573.91;;;29.46;33.85
42511;BME280;28141;51.120;17.114;2022-10-16T00:59:25;101575.38;;;29.49;34.08
42511;BME280;28141;51.120;17.114;2022-10-16T01:03:00;101571.73;;;29.48;34.05
42511;BME280;28141;51.120;17.114;2022-10-16T01:09:27;101577.21;;;29.43;33.83
42511;BME280;28141;51.120;17.114;2022-10-16T01:15:55;101574.27;;;29.50;34.19
42511;BME280;28141;51.120;17.114;2022-10-16T01:33:04;101593.38;;;29.41;34.19
42511;BME280;28141;51.120;17.114;2022-10-16T01:36:17;101580.95;;;29.49;34.23
42511;BME280;28141;51.120;17.114;2022-10-16T01:39:25;101573.42;;;29.49;34.55
42511;BME280;28141;51.120;17.114;2022-10-16T01:42:37;101566.21;;;29.53;33.95
42511;BME280;28141;51.120;17.114;2022-10-16T01:45:44;101564.02;;;29.55;34.07
42511;BME280;28141;51.120;17.114;2022-10-16T01:48:50;101568.52;;;29.56;33.55
42511;BME280;28141;51.120;17.114;2022-10-16T01:52:23;101572.64;;;29.54;33.96
42511;BME280;28141;51.120;17.114;2022-10-16T01:55:32;101579.37;;;29.53;33.94
42511;BME280;28141;51.120;17.114;2022-10-16T01:58:42;101575.43;;;29.54;33.72
42511;BME280;28141;51.120;17.114;2022-10-16T02:01:50;101582.46;;;29.56;33.84
42511;BME280;28141;51.120;17.114;2022-10-16T02:08:10;101583.24;;;29.52;33.79
42511;BME280;28141;51.120;17.114;2022-10-16T02:11:40;101583.24;;;29.52;34.04
42511;BME280;28141;51.120;17.114;2022-10-16T02:14:43;101588.83;;;29.52;34.13
42511;BME280;28141;51.120;17.114;2022-10-16T02:17:47;101590.77;;;29.51;33.86
42511;BME280;28141;51.120;17.114;2022-10-16T02:21:00;101589.39;;;29.54;34.12
42511;BME280;28141;51.120;17.114;2022-10-16T02:24:14;101592.37;;;29.47;34.21
42511;BME280;28141;51.120;17.114;2022-10-16T02:31:05;101598.44;;;29.44;34.21
42511;BME280;28141;51.120;17.114;2022-10-16T02:34:12;101603.52;;;29.47;34.33
42511;BME280;28141;51.120;17.114;2022-10-16T02:37:18;101612.27;;;29.51;33.86
42511;BME280;28141;51.120;17.114;2022-10-16T02:40:22;101624.28;;;29.51;34.18
42511;BME280;28141;51.120;17.114;2022-10-16T02:43:26;101624.28;;;29.51;34.20
42511;BME280;28141;51.120;17.114;2022-10-16T02:46:29;101615.89;;;29.51;33.73
42511;BME280;28141;51.120;17.114;2022-10-16T02:49:33;101612.02;;;29.52;33.95
42511;BME280;28141;51.120;17.114;2022-10-16T02:52:36;101611.16;;;29.52;33.51
42511;BME280;28141;51.120;17.114;2022-10-16T02:55:40;101612.27;;;29.51;34.24
42511;BME280;28141;51.120;17.114;2022-10-16T02:58:43;101614.45;;;29.49;33.68
42511;BME280;28141;51.120;17.114;2022-10-16T03:02:14;101620.28;;;29.47;34.17
42511;BME280;28141;51.120;17.114;2022-10-16T03:05:18;101621.38;;;29.46;33.75
42511;BME280;28141;51.120;17.114;2022-10-16T03:08:21;101616.89;;;29.45;34.26
42511;BME280;28141;51.120;17.114;2022-10-16T03:11:27;101625.62;;;29.49;34.22
42511;BME280;28141;51.120;17.114;2022-10-16T03:14:31;101628.05;;;29.45;34.23
42511;BME280;28141;51.120;17.114;2022-10-16T03:17:35;101633.88;;;29.44;34.22
42511;BME280;28141;51.120;17.114;2022-10-16T03:20:38;101636.42;;;29.45;34.09
42511;BME280;28141;51.120;17.114;2022-10-16T03:23:42;101638.36;;;29.45;34.33
42511;BME280;28141;51.120;17.114;2022-10-16T03:26:45;101631.69;;;29.46;34.23
42511;BME280;28141;51.120;17.114;2022-10-16T03:29:48;101638.73;;;29.48;34.16
42511;BME280;28141;51.120;17.114;2022-10-16T03:32:52;101637.63;;;29.49;34.16
42511;BME280;28141;51.120;17.114;2022-10-16T03:36:26;101635.34;;;29.46;34.24
42511;BME280;28141;51.120;17.114;2022-10-16T03:39:29;101623.07;;;29.47;34.37
42511;BME280;28141;51.120;17.114;2022-10-16T03:43:16;101628.90;;;29.46;33.96
42511;BME280;28141;51.120;17.114;2022-10-16T03:46:20;101638.13;;;29.46;34.36
42511;BME280;28141;51.120;17.114;2022-10-16T03:49:23;101650.73;;;29.49;34.29
42511;BME280;28141;51.120;17.114;2022-10-16T03:52:27;101646.85;;;29.50;34.16
42511;BME280;28141;51.120;17.114;2022-10-16T03:55:30;101643.57;;;29.53;34.07
42511;BME280;28141;51.120;17.114;2022-10-16T03:58:34;101646.36;;;29.53;34.01
42511;BME280;28141;51.120;17.114;2022-10-16T04:01:37;101646.36;;;29.53;34.52
42511;BME280;28141;51.120;17.114;2022-10-16T04:04:41;101649.15;;;29.53;34.22
42511;BME280;28141;51.120;17.114;2022-10-16T04:07:44;101647.45;;;29.52;34.58
42511;BME280;28141;51.120;17.114;2022-10-16T04:10:48;101648.02;;;29.54;34.21
42511;BME280;28141;51.120;17.114;2022-10-16T04:13:51;101646.93;;;29.55;33.60
42511;BME280;28141;51.120;17.114;2022-10-16T04:17:21;101665.14;;;29.57;34.15
42511;BME280;28141;51.120;17.114;2022-10-16T04:20:25;101664.29;;;29.57;34.21
42511;BME280;28141;51.120;17.114;2022-10-16T04:23:28;101662.34;;;29.57;34.07
42511;BME280;28141;51.120;17.114;2022-10-16T04:26:32;101663.44;;;29.56;34.40
42511;BME280;28141;51.120;17.114;2022-10-16T04:29:35;101658.46;;;29.58;34.31
42511;BME280;28141;51.120;17.114;2022-10-16T04:32:39;101649.23;;;29.58;34.25
42511;BME280;28141;51.120;17.114;2022-10-16T04:35:43;101666.34;;;29.61;34.35
42511;BME280;28141;51.120;17.114;2022-10-16T04:38:46;101670.23;;;29.60;34.17
42511;BME280;28141;51.120;17.114;2022-10-16T04:41:50;101680.79;;;29.58;34.14
42511;BME280;28141;51.120;17.114;2022-10-16T04:44:53;101686.63;;;29.57;34.07
42511;BME280;28141;51.120;17.114;2022-10-16T04:47:58;101676.30;;;29.57;34.40
42511;BME280;28141;51.120;17.114;2022-10-16T04:51:28;101678.25;;;29.57;34.12
42511;BME280;28141;51.120;17.114;2022-10-16T04:54:31;101672.66;;;29.57;33.85
42511;BME280;28141;51.120;17.114;2022-10-16T04:57:35;101674.61;;;29.56;34.77
42511;BME280;28141;51.120;17.114;2022-10-16T05:00:38;101671.21;;;29.54;34.13
42511;BME280;28141;51.120;17.114;2022-10-16T05:03:42;101674.84;;;29.55;34.38
42511;BME280;28141;51.120;17.114;2022-10-16T05:06:47;101677.64;;;29.55;34.30
42511;BME280;28141;51.120;17.114;2022-10-16T05:09:50;101677.64;;;29.55;34.09
42511;BME280;28141;51.120;17.114;2022-10-16T05:12:54;101676.55;;;29.56;33.89
42511;BME280;28141;51.120;17.114;2022-10-16T05:15:58;101680.19;;;29.56;34.09
42511;BME280;28141;51.120;17.114;2022-10-16T05:19:01;101686.88;;;29.55;34.15
42511;BME280;28141;51.120;17.114;2022-10-16T05:22:05;101696.95;;;29.56;33.97
42511;BME280;28141;51.120;17.114;2022-10-16T05:25:35;101708.60;;;29.53;34.18
42511;BME280;28141;51.120;17.114;2022-10-16T05:28:38;101697.45;;;29.53;34.16
42511;BME280;28141;51.120;17.114;2022-10-16T05:31:42;101692.70;;;29.54;34.12
42511;BME280;28141;51.120;17.114;2022-10-16T05:34:45;101690.51;;;29.56;34.19
42511;BME280;28141;51.120;17.114;2022-10-16T05:37:49;101691.36;;;29.56;34.00
42511;BME280;28141;51.120;17.114;2022-10-16T05:40:53;101696.95;;;29.56;33.95
42511;BME280;28141;51.120;17.114;2022-10-16T05:43:56;101698.88;;;29.56;34.99
42511;BME280;28141;51.120;17.114;2022-10-16T05:47:00;101702.52;;;29.56;34.01
42511;BME280;28141;51.120;17.114;2022-10-16T05:50:04;101701.68;;;29.56;34.28
42511;BME280;28141;51.120;17.114;2022-10-16T05:53:08;101705.93;;;29.58;34.51
42511;BME280;28141;51.120;17.114;2022-10-16T05:56:11;101700.34;;;29.58;34.03
42511;BME280;28141;51.120;17.114;2022-10-16T05:59:42;101705.31;;;29.56;34.17
42511;BME280;28141;51.120;17.114;2022-10-16T06:02:46;101707.86;;;29.58;34.07
42511;BME280;28141;51.120;17.114;2022-10-16T06:05:50;101723.17;;;29.55;34.29
42511;BME280;28141;51.120;17.114;2022-10-16T06:08:55;101728.25;;;29.58;33.96
42511;BME280;28141;51.120;17.114;2022-10-16T06:11:59;101726.68;;;29.62;34.34
42511;BME280;28141;51.120;17.114;2022-10-16T06:15:03;101729.48;;;29.62;33.99
42511;BME280;28141;51.120;17.114;2022-10-16T06:18:07;101741.21;;;29.64;34.28
42511;BME280;28141;51.120;17.114;2022-10-16T06:21:14;101734.53;;;29.65;34.38
42511;BME280;28141;51.120;17.114;2022-10-16T06:24:17;101727.61;;;29.68;34.33
42511;BME280;28141;51.120;17.114;2022-10-16T06:27:21;101730.16;;;29.69;34.27
42511;BME280;28141;51.120;17.114;2022-10-16T06:30:25;101740.23;;;29.70;34.32
42511;BME280;28141;51.120;17.114;2022-10-16T06:33:55;101745.57;;;29.72;34.06
42511;BME280;28141;51.120;17.114;2022-10-16T06:36:59;101741.17;;;29.76;33.56
42511;BME280;28141;51.120;17.114;2022-10-16T06:40:03;101750.99;;;29.78;34.14
42511;BME280;28141;51.120;17.114;2022-10-16T06:43:07;101759.73;;;29.82;34.15
42511;BME280;28141;51.120;17.114;2022-10-16T06:46:13;101762.03;;;29.85;34.36
42511;BME280;28141;51.120;17.114;2022-10-16T06:49:17;101758.72;;;29.88;34.06
42511;BME280;28141;51.120;17.114;2022-10-16T06:52:28;101761.88;;;29.92;32.82
42511;BME280;28141;51.120;17.114;2022-10-16T06:55:31;101766.97;;;29.95;33.67
42511;BME280;28141;51.120;17.114;2022-10-16T06:58:35;101773.15;;;29.97;33.59
42511;BME280;28141;51.120;17.114;2022-10-16T07:02:05;101778.49;;;29.98;33.75
42511;BME280;28141;51.120;17.114;2022-10-16T07:05:10;101795.62;;;30.02;33.61
42511;BME280;28141;51.120;17.114;2022-10-16T07:08:14;101781.41;;;30.03;34.25
42511;BME280;28141;51.120;17.114;2022-10-16T07:11:20;101795.13;;;30.05;33.25
42511;BME280;28141;51.120;17.114;2022-10-16T07:14:24;101796.82;;;30.06;33.40
42511;BME280;28141;51.120;17.114;2022-10-16T07:17:28;101801.89;;;30.09;33.09
42511;BME280;28141;51.120;17.114;2022-10-16T07:20:31;101806.99;;;30.12;33.57
42511;BME280;28141;51.120;17.114;2022-10-16T07:23:35;101803.09;;;30.13;33.55
42511;BME280;28141;51.120;17.114;2022-10-16T07:26:39;101800.91;;;30.15;34.32
42511;BME280;28141;51.120;17.114;2022-10-16T07:29:43;101799.04;;;30.21;33.48
42511;BME280;28141;51.120;17.114;2022-10-16T07:32:46;101809.98;;;30.22;33.37
42511;BME280;28141;51.120;17.114;2022-10-16T07:36:17;101815.91;;;30.26;33.40
42511;BME280;28141;51.120;17.114;2022-10-16T07:39:21;101807.60;;;30.31;33.86
42511;BME280;28141;51.120;17.114;2022-10-16T07:42:24;101806.27;;;30.33;33.77
42511;BME280;28141;51.120;17.114;2022-10-16T07:45:28;101812.45;;;30.35;33.85
42511;BME280;28141;51.120;17.114;2022-10-16T07:48:33;101810.26;;;30.37;33.92
42511;BME280;28141;51.120;17.114;2022-10-16T07:51:37;101807.53;;;30.42;33.10
42511;BME280;28141;51.120;17.114;2022-10-16T07:54:41;101800.59;;;30.45;33.26
42511;BME280;28141;51.120;17.114;2022-10-16T07:57:45;101806.55;;;30.48;33.08
42511;BME280;28141;51.120;17.114;2022-10-16T08:00:48;101808.24;;;30.49;32.67
42511;BME280;28141;51.120;17.114;2022-10-16T08:03:52;101805.16;;;30.51;33.01
42511;BME280;28141;51.120;17.114;2022-10-16T08:07:24;101813.94;;;30.55;32.99
42511;BME280;28141;51.120;17.114;2022-10-16T08:10:28;101811.49;;;30.58;32.97
42511;BME280;28141;51.120;17.114;2022-10-16T08:13:33;101812.16;;;30.65;33.17
42511;BME280;28141;51.120;17.114;2022-10-16T08:16:36;101825.38;;;30.70;33.10
42511;BME280;28141;51.120;17.114;2022-10-16T08:19:44;101824.87;;;30.73;32.60
42511;BME280;28141;51.120;17.114;2022-10-16T08:22:47;101833.35;;;30.78;32.29
42511;BME280;28141;51.120;17.114;2022-10-16T08:25:52;101838.44;;;30.81;32.42
42511;BME280;28141;51.120;17.114;2022-10-16T08:28:56;101836.22;;;30.83;32.32
42511;BME280;28141;51.120;17.114;2022-10-16T08:31:59;101841.31;;;30.86;32.36
42511;BME280;28141;51.120;17.114;2022-10-16T08:35:04;101832.66;;;30.88;32.11
42511;BME280;28141;51.120;17.114;2022-10-16T08:38:34;101842.51;;;30.90;32.47
42511;BME280;28141;51.120;17.114;2022-10-16T08:51:55;101868.01;;;30.94;32.54
42511;BME280;28141;51.120;17.114;2022-10-16T08:55:00;101858.36;;;31.01;32.08
42511;BME280;28141;51.120;17.114;2022-10-16T09:01:23;101869.30;;;31.03;32.51
42511;BME280;28141;51.120;17.114;2022-10-16T09:14:54;101870.84;;;31.10;32.13
42511;BME280;28141;51.120;17.114;2022-10-16T09:25:00;101873.60;;;31.27;32.20
42511;BME280;28141;51.120;17.114;2022-10-16T09:28:09;101874.34;;;31.39;32.24
42511;BME280;28141;51.120;17.114;2022-10-16T09:31:18;101876.73;;;31.47;31.45
42511;BME280;28141;51.120;17.114;2022-10-16T09:34:35;101881.79;;;31.50;32.04
42511;BME280;28141;51.120;17.114;2022-10-16T09:37:42;101879.23;;;31.49;31.83
42511;BME280;28141;51.120;17.114;2022-10-16T09:41:19;101881.33;;;31.58;31.80
42511;BME280;28141;51.120;17.114;2022-10-16T09:44:29;101881.68;;;31.62;32.17
42511;BME280;28141;51.120;17.114;2022-10-16T09:47:43;101867.79;;;31.67;31.66
42511;BME280;28141;51.120;17.114;2022-10-16T09:54:02;101868.43;;;31.74;31.07
42511;BME280;28141;51.120;17.114;2022-10-16T09:57:35;101866.26;;;31.81;31.60
42511;BME280;28141;51.120;17.114;2022-10-16T10:00:41;101874.76;;;31.86;31.74
42511;BME280;28141;51.120;17.114;2022-10-16T10:03:50;101866.39;;;31.91;31.77
42511;BME280;28141;51.120;17.114;2022-10-16T10:07:00;101862.55;;;31.98;32.07
42511;BME280;28141;51.120;17.114;2022-10-16T10:10:05;101856.70;;;31.99;31.83
42511;BME280;28141;51.120;17.114;2022-10-16T10:17:01;101867.56;;;31.96;31.65
42511;BME280;28141;51.120;17.114;2022-10-16T10:23:23;101862.29;;;31.99;31.84
42511;BME280;28141;51.120;17.114;2022-10-16T10:26:31;101868.49;;;32.01;32.13
42511;BME280;28141;51.120;17.114;2022-10-16T10:36:40;101859.86;;;32.08;31.66
42511;BME280;28141;51.120;17.114;2022-10-16T10:39:57;101867.16;;;32.09;31.85
42511;BME280;28141;51.120;17.114;2022-10-16T10:43:14;101873.11;;;32.12;32.15
42511;BME280;28141;51.120;17.114;2022-10-16T10:46:51;101875.32;;;32.10;32.04
42511;BME280;28141;51.120;17.114;2022-10-16T10:50:14;101861.55;;;32.09;32.09
42511;BME280;28141;51.120;17.114;2022-10-16T11:00:20;101869.45;;;32.12;32.11
42511;BME280;28141;51.120;17.114;2022-10-16T11:06:47;101862.15;;;32.11;31.82
42511;BME280;28141;51.120;17.114;2022-10-16T11:09:57;101872.08;;;32.18;31.46
42511;BME280;28141;51.120;17.114;2022-10-16T11:13:14;101863.44;;;32.25;31.23
42511;BME280;28141;51.120;17.114;2022-10-16T11:16:52;101851.67;;;32.23;31.42
42511;BME280;28141;51.120;17.114;2022-10-16T11:20:05;101846.36;;;32.26;31.82
42511;BME280;28141;51.120;17.114;2022-10-16T11:26:28;101844.92;;;32.24;31.68
42511;BME280;28141;51.120;17.114;2022-10-16T11:29:35;101841.66;;;32.32;31.40
42511;BME280;28141;51.120;17.114;2022-10-16T11:33:22;101832.69;;;32.35;31.66
42511;BME280;28141;51.120;17.114;2022-10-16T11:39:38;101847.37;;;32.42;31.67
42511;BME280;28141;51.120;17.114;2022-10-16T11:42:50;101849.95;;;32.49;31.76
42511;BME280;28141;51.120;17.114;2022-10-16T11:46:02;101848.05;;;32.54;31.36
42511;BME280;28141;51.120;17.114;2022-10-16T11:49:34;101842.73;;;32.58;31.50
42511;BME280;28141;51.120;17.114;2022-10-16T11:52:53;101834.11;;;32.64;31.65
42511;BME280;28141;51.120;17.114;2022-10-16T11:55:51;101837.55;;;32.72;31.80
42511;BME280;28141;51.120;17.114;2022-10-16T11:59:04;101835.34;;;32.74;31.77
42511;BME280;28141;51.120;17.114;2022-10-16T12:02:37;101849.95;;;32.76;31.71
42511;BME280;28141;51.120;17.114;2022-10-16T12:06:06;101862.02;;;32.76;31.69
42511;BME280;28141;51.120;17.114;2022-10-16T12:09:22;101857.79;;;32.74;31.43
42511;BME280;28141;51.120;17.114;2022-10-16T12:12:39;101844.63;;;32.79;31.22
42511;BME280;28141;51.120;17.114;2022-10-16T12:15:42;101852.26;;;32.84;31.28
42511;BME280;28141;51.120;17.114;2022-10-16T12:18:47;101866.31;;;32.89;30.49
42511;BME280;28141;51.120;17.114;2022-10-16T12:22:18;101875.05;;;32.92;30.97
42511;BME280;28141;51.120;17.114;2022-10-16T12:25:29;101885.48;;;32.97;31.60
42511;BME280;28141;51.120;17.114;2022-10-16T12:28:34;101892.48;;;32.94;31.33
42511;BME280;28141;51.120;17.114;2022-10-16T12:31:45;101892.21;;;32.96;31.38
42511;BME280;28141;51.120;17.114;2022-10-16T12:34:49;101896.71;;;32.97;30.73
42511;BME280;28141;51.120;17.114;2022-10-16T12:37:54;101894.46;;;32.99;31.87
42511;BME280;28141;51.120;17.114;2022-10-16T12:41:07;101898.70;;;33.02;31.60
42511;BME280;28141;51.120;17.114;2022-10-16T12:44:38;101897.85;;;33.01;31.40
42511;BME280;28141;51.120;17.114;2022-10-16T12:47:48;101902.94;;;33.04;31.48
42511;BME280;28141;51.120;17.114;2022-10-16T12:50:52;101901.24;;;33.03;30.82
42511;BME280;28141;51.120;17.114;2022-10-16T13:10:53;101917.56;;;33.06;31.16
42511;BME280;28141;51.120;17.114;2022-10-16T13:27:33;101931.07;;;33.09;31.17
42511;BME280;28141;51.120;17.114;2022-10-16T13:31:04;101937.82;;;33.13;31.43
42511;BME280;28141;51.120;17.114;2022-10-16T13:34:14;101940.48;;;33.25;30.55
42511;BME280;28141;51.120;17.114;2022-10-16T13:37:21;101933.50;;;33.32;30.80
42511;BME280;28141;51.120;17.114;2022-10-16T13:40:25;101928.52;;;33.40;30.89
42511;BME280;28141;51.120;17.114;2022-10-16T13:43:36;101940.05;;;33.43;30.68
42511;BME280;28141;51.120;17.114;2022-10-16T13:46:40;101945.95;;;33.42;30.71
42511;BME280;28141;51.120;17.114;2022-10-16T13:49:44;101937.28;;;33.48;30.89
42511;BME280;28141;51.120;17.114;2022-10-16T13:52:47;101939.57;;;33.56;30.47
42511;BME280;28141;51.120;17.114;2022-10-16T13:56:20;101935.69;;;33.62;30.45
42511;BME280;28141;51.120;17.114;2022-10-16T13:59:33;101937.40;;;33.68;30.13
42511;BME280;28141;51.120;17.114;2022-10-16T14:02:39;101937.45;;;33.74;30.47
42511;BME280;28141;51.120;17.114;2022-10-16T14:05:53;101947.34;;;33.81;29.41
42511;BME280;28141;51.120;17.114;2022-10-16T14:12:39;101971.59;;;33.92;30.31
42511;BME280;28141;51.120;17.114;2022-10-16T14:15:47;101962.08;;;34.03;30.27
42511;BME280;28141;51.120;17.114;2022-10-16T14:18:59;101968.91;;;34.18;30.27
42511;BME280;28141;51.120;17.114;2022-10-16T14:25:26;101964.73;;;34.25;29.93
42511;BME280;28141;51.120;17.114;2022-10-16T14:29:14;101978.29;;;34.38;29.74
42511;BME280;28141;51.120;17.114;2022-10-16T14:32:23;101967.34;;;34.47;29.87
42511;BME280;28141;51.120;17.114;2022-10-16T14:35:33;101964.80;;;34.51;29.44
42511;BME280;28141;51.120;17.114;2022-10-16T14:38:39;101965.09;;;34.54;29.40
42511;BME280;28141;51.120;17.114;2022-10-16T14:41:48;101967.93;;;34.59;29.43
42511;BME280;28141;51.120;17.114;2022-10-16T14:45:24;101966.22;;;34.53;29.34
42511;BME280;28141;51.120;17.114;2022-10-16T14:48:29;101976.35;;;34.54;29.25
42511;BME280;28141;51.120;17.114;2022-10-16T14:51:33;101973.53;;;34.54;29.36
42511;BME280;28141;51.120;17.114;2022-10-16T14:54:36;101971.27;;;34.51;29.21
42511;BME280;28141;51.120;17.114;2022-10-16T14:57:40;101980.55;;;34.52;29.39
42511;BME280;28141;51.120;17.114;2022-10-16T15:00:46;101978.87;;;34.51;29.34
42511;BME280;28141;51.120;17.114;2022-10-16T15:03:50;101987.03;;;34.52;29.56
42511;BME280;28141;51.120;17.114;2022-10-16T15:06:57;101981.68;;;34.51;29.25
42511;BME280;28141;51.120;17.114;2022-10-16T15:10:00;101980.29;;;34.48;29.11
42511;BME280;28141;51.120;17.114;2022-10-16T15:13:04;101986.73;;;34.43;29.27
42511;BME280;28141;51.120;17.114;2022-10-16T15:16:36;101994.32;;;34.38;29.45
42511;BME280;28141;51.120;17.114;2022-10-16T15:19:40;101987.27;;;34.35;30.11
42511;BME280;28141;51.120;17.114;2022-10-16T15:22:43;101990.90;;;34.31;29.39
42511;BME280;28141;51.120;17.114;2022-10-16T15:25:49;101997.95;;;34.28;29.35
42511;BME280;28141;51.120;17.114;2022-10-16T15:28:53;101999.34;;;34.26;29.28
42511;BME280;28141;51.120;17.114;2022-10-16T15:31:57;102000.69;;;34.23;29.38
42511;BME280;28141;51.120;17.114;2022-10-16T15:35:01;101994.77;;;34.20;29.24
42511;BME280;28141;51.120;17.114;2022-10-16T15:38:04;101996.71;;;34.14;29.87
42511;BME280;28141;51.120;17.114;2022-10-16T15:41:07;101996.41;;;34.11;29.86
42511;BME280;28141;51.120;17.114;2022-10-16T15:44:11;101993.59;;;34.05;29.94
42511;BME280;28141;51.120;17.114;2022-10-16T15:47:15;102004.52;;;34.02;29.90
42511;BME280;28141;51.120;17.114;2022-10-16T15:50:47;102005.63;;;33.96;29.96
42511;BME280;28141;51.120;17.114;2022-10-16T15:53:51;102010.10;;;33.92;29.87
42511;BME280;28141;51.120;17.114;2022-10-16T15:56:56;102019.91;;;33.89;30.49
42511;BME280;28141;51.120;17.114;2022-10-16T15:59:59;102021.86;;;33.84;30.31
42511;BME280;28141;51.120;17.114;2022-10-16T16:03:03;102024.94;;;33.82;30.72
42511;BME280;28141;51.120;17.114;2022-10-16T16:06:09;102022.66;;;33.79;30.54
42511;BME280;28141;51.120;17.114;2022-10-16T16:09:14;102027.43;;;33.79;31.04
42511;BME280;28141;51.120;17.114;2022-10-16T16:12:17;102025.42;;;33.74;31.08
42511;BME280;28141;51.120;17.114;2022-10-16T16:15:22;102039.10;;;33.65;30.76
42511;BME280;28141;51.120;17.114;2022-10-16T16:18:26;102044.12;;;33.58;30.67
42511;BME280;28141;51.120;17.114;2022-10-16T16:22:00;102050.51;;;33.49;30.46
42511;BME280;28141;51.120;17.114;2022-10-16T16:25:04;102059.17;;;33.42;30.16
42511;BME280;28141;51.120;17.114;2022-10-16T16:28:08;102063.88;;;33.37;30.35
42511;BME280;28141;51.120;17.114;2022-10-16T16:31:16;102073.95;;;33.32;30.58
42511;BME280;28141;51.120;17.114;2022-10-16T16:34:20;102068.56;;;33.26;30.17
42511;BME280;28141;51.120;17.114;2022-10-16T16:37:23;102065.64;;;33.21;30.36
42511;BME280;28141;51.120;17.114;2022-10-16T16:40:27;102067.58;;;33.15;30.31
42511;BME280;28141;51.120;17.114;2022-10-16T16:43:30;102077.08;;;33.09;30.67
42511;BME280;28141;51.120;17.114;2022-10-16T16:46:34;102084.58;;;33.04;30.52
42511;BME280;28141;51.120;17.114;2022-10-16T16:49:38;102095.48;;;33.00;30.19
42511;BME280;28141;51.120;17.114;2022-10-16T16:52:43;102098.84;;;32.97;30.86
42511;BME280;28141;51.120;17.114;2022-10-16T16:56:13;102102.95;;;32.89;30.86
42511;BME280;28141;51.120;17.114;2022-10-16T16:59:21;102104.34;;;32.87;31.16
42511;BME280;28141;51.120;17.114;2022-10-16T17:02:25;102107.28;;;32.75;30.20
42511;BME280;28141;51.120;17.114;2022-10-16T17:05:28;102105.26;;;32.71;31.36
42511;BME280;28141;51.120;17.114;2022-10-16T17:08:34;102111.34;;;32.68;31.73
42511;BME280;28141;51.120;17.114;2022-10-16T17:11:38;102127.87;;;32.64;30.81
42511;BME280;28141;51.120;17.114;2022-10-16T17:14:45;102125.83;;;32.59;30.43
42511;BME280;28141;51.120;17.114;2022-10-16T17:17:49;102139.52;;;32.56;31.59
42511;BME280;28141;51.120;17.114;2022-10-16T17:20:52;102138.87;;;32.49;31.65
42511;BME280;28141;51.120;17.114;2022-10-16T17:23:56;102145.28;;;32.44;31.77
42511;BME280;28141;51.120;17.114;2022-10-16T17:27:26;102154.46;;;32.40;31.49
42511;BME280;28141;51.120;17.114;2022-10-16T17:30:29;102147.90;;;32.34;31.56
42511;BME280;28141;51.120;17.114;2022-10-16T17:33:37;102156.27;;;32.29;31.50
42511;BME280;28141;51.120;17.114;2022-10-16T17:36:41;102169.94;;;32.25;31.61
42511;BME280;28141;51.120;17.114;2022-10-16T17:39:49;102162.82;;;32.18;32.21
42511;BME280;28141;51.120;17.114;2022-10-16T17:42:55;102159.39;;;32.16;31.58
42511;BME280;28141;51.120;17.114;2022-10-16T17:46:01;102172.23;;;32.12;31.57
42511;BME280;28141;51.120;17.114;2022-10-16T17:49:05;102169.94;;;32.09;31.80
42511;BME280;28141;51.120;17.114;2022-10-16T17:52:09;102178.24;;;32.04;31.85
42511;BME280;28141;51.120;17.114;2022-10-16T17:55:39;102175.38;;;31.99;32.08
42511;BME280;28141;51.120;17.114;2022-10-16T17:58:51;102176.97;;;31.95;31.94
42511;BME280;28141;51.120;17.114;2022-10-16T18:01:55;102178.33;;;31.92;32.41
42511;BME280;28141;51.120;17.114;2022-10-16T18:04:58;102184.73;;;31.87;32.78
42511;BME280;28141;51.120;17.114;2022-10-16T18:08:03;102188.02;;;31.84;32.81
42511;BME280;28141;51.120;17.114;2022-10-16T18:11:09;102184.86;;;31.81;32.34
42511;BME280;28141;51.120;17.114;2022-10-16T18:14:15;102191.00;;;31.78;32.42
42511;BME280;28141;51.120;17.114;2022-10-16T18:17:19;102197.09;;;31.75;32.32
42511;BME280;28141;51.120;17.114;2022-10-16T18:20:57;102204.54;;;31.69;32.53
42511;BME280;28141;51.120;17.114;2022-10-16T18:24:01;102198.48;;;31.61;32.50
42511;BME280;28141;51.120;17.114;2022-10-16T18:27:05;102201.27;;;31.61;32.57
42511;BME280;28141;51.120;17.114;2022-10-16T18:30:09;102204.92;;;31.61;32.64